createdAt,value
2022-08-04T00:03:14.961Z,94577.44
2022-08-04T00:06:05.604Z,94565.53
2022-08-04T00:08:55.732Z,94571.63
2022-08-04T00:11:27.246Z,94565.59
2022-08-04T00:14:03.998Z,94563.47
2022-08-04T00:16:41.407Z,94574.13
2022-08-04T00:19:17.766Z,94571.59
2022-08-04T00:21:54.106Z,94564.50
2022-08-04T00:24:22.625Z,94556.91
2022-08-04T00:26:53.686Z,94560.00
2022-08-04T00:29:22.639Z,94572.44
2022-08-04T00:31:54.951Z,94567.13
2022-08-04T00:34:27.663Z,94576.69
2022-08-04T00:36:56.253Z,94571.88
2022-08-04T00:39:24.427Z,94575.88
2022-08-04T00:42:34.558Z,94573.47
2022-08-04T00:46:12.532Z,94581.19
2022-08-04T00:48:57.453Z,94583.56
2022-08-04T00:52:32.013Z,94582.84
2022-08-04T00:55:09.083Z,94582.13
2022-08-04T00:58:04.160Z,94586.97
2022-08-04T01:01:05.126Z,94590.63
2022-08-04T01:03:56.589Z,94587.41
2022-08-04T01:06:56.146Z,94586.81
2022-08-04T01:09:49.685Z,94582.03
2022-08-04T01:12:53.070Z,94583.59
2022-08-04T01:16:00.178Z,94575.88
2022-08-04T01:18:52.021Z,94578.88
2022-08-04T01:21:31.021Z,94577.16
2022-08-04T01:24:20.041Z,94582.28
2022-08-04T01:27:26.957Z,94577.47
2022-08-04T01:29:59.586Z,94571.09
2022-08-04T01:32:59.880Z,94572.66
2022-08-04T01:35:47.206Z,94576.41
2022-08-04T01:38:39.597Z,94572.81
2022-08-04T01:41:14.376Z,94567.97
2022-08-04T01:43:44.174Z,94568.00
2022-08-04T01:46:14.570Z,94560.66
2022-08-04T01:48:45.556Z,94558.00
2022-08-04T01:51:12.711Z,94559.06
2022-08-04T01:53:44.813Z,94560.72
2022-08-04T01:56:13.101Z,94554.97
2022-08-04T01:58:41.370Z,94562.69
2022-08-04T02:01:13.047Z,94565.19
2022-08-04T02:04:18.276Z,94570.91
2022-08-04T02:06:48.412Z,94562.75
2022-08-04T02:09:55.582Z,94557.44
2022-08-04T02:12:40.238Z,94552.72
2022-08-04T02:15:14.685Z,94559.91
2022-08-04T02:17:51.097Z,94551.53
2022-08-04T02:20:36.274Z,94557.03
2022-08-04T02:23:15.191Z,94552.97
2022-08-04T02:25:50.502Z,94556.66
2022-08-04T02:28:59.925Z,94555.84
2022-08-04T02:31:29.722Z,94554.22
2022-08-04T02:34:06.107Z,94555.88
2022-08-04T02:36:42.671Z,94554.22
2022-08-04T02:39:13.891Z,94545.03
2022-08-04T02:41:41.318Z,94548.13
2022-08-04T02:44:10.647Z,94548.28
2022-08-04T02:46:39.325Z,94548.72
2022-08-04T02:49:10.845Z,94551.16
2022-08-04T02:51:44.357Z,94539.50
2022-08-04T02:54:11.514Z,94546.44
2022-08-04T02:56:40.400Z,94542.38
2022-08-04T02:59:10.992Z,94540.56
2022-08-04T03:01:56.993Z,94549.28
2022-08-04T03:04:47.930Z,94546.41
2022-08-04T03:07:35.373Z,94541.13
2022-08-04T03:10:21.990Z,94541.72
2022-08-04T03:13:28.857Z,94541.75
2022-08-04T03:16:16.180Z,94537.50
2022-08-04T03:19:24.110Z,94542.75
2022-08-04T03:22:30.903Z,94543.34
2022-08-04T03:25:21.950Z,94547.66
2022-08-04T03:28:13.004Z,94539.88
2022-08-04T03:31:21.411Z,94534.56
2022-08-04T03:34:00.283Z,94543.88
2022-08-04T03:37:17.893Z,94559.78
2022-08-04T03:40:21.712Z,94547.16
2022-08-04T03:43:58.043Z,94552.41
2022-08-04T03:46:52.451Z,94562.59
2022-08-04T03:49:49.837Z,94562.19
2022-08-04T03:53:09.791Z,94556.97
2022-08-04T03:55:54.613Z,94557.84
2022-08-04T03:58:43.948Z,94555.41
2022-08-04T04:02:01.133Z,94557.06
2022-08-04T04:05:01.020Z,94555.78
2022-08-04T04:08:18.732Z,94550.03
2022-08-04T04:11:07.874Z,94549.63
2022-08-04T04:13:49.593Z,94554.09
2022-08-04T04:16:43.546Z,94549.75
2022-08-04T04:19:45.536Z,94549.09
2022-08-04T04:22:25.838Z,94553.47
2022-08-04T04:25:09.770Z,94544.44
2022-08-04T04:28:43.647Z,94552.25
2022-08-04T04:31:52.479Z,94554.16
2022-08-04T04:34:37.464Z,94561.47
2022-08-04T04:37:56.788Z,94551.09
2022-08-04T04:40:39.508Z,94555.78
2022-08-04T04:43:51.043Z,94556.03
2022-08-04T04:46:46.467Z,94555.38
2022-08-04T04:49:41.042Z,94563.09
2022-08-04T04:52:47.990Z,94568.34
2022-08-04T04:55:29.522Z,94569.94
2022-08-04T04:58:00.710Z,94568.97
2022-08-04T05:01:07.520Z,94568.22
2022-08-04T05:03:45.959Z,94569.63
2022-08-04T05:06:39.612Z,94571.50
2022-08-04T05:09:27.565Z,94563.81
2022-08-04T05:14:32.845Z,94572.31
2022-08-04T05:15:32.337Z,94573.78
2022-08-04T05:18:02.478Z,94575.84
2022-08-04T05:20:39.424Z,94569.13
2022-08-04T05:23:41.788Z,94572.59
2022-08-04T05:26:13.979Z,94575.66
2022-08-04T05:28:53.969Z,94569.34
2022-08-04T05:31:26.742Z,94564.81
2022-08-04T05:33:59.024Z,94574.63
2022-08-04T05:36:41.245Z,94568.69
2022-08-04T05:39:16.106Z,94566.44
2022-08-04T05:41:45.276Z,94565.81
2022-08-04T05:44:15.777Z,94567.41
2022-08-04T05:46:45.657Z,94567.59
2022-08-04T05:49:23.180Z,94567.19
2022-08-04T05:51:51.343Z,94563.50
2022-08-04T05:54:19.057Z,94567.72
2022-08-04T05:56:46.568Z,94569.75
2022-08-04T05:59:14.548Z,94569.06
2022-08-04T06:01:55.345Z,94570.66
2022-08-04T06:04:26.844Z,94576.31
2022-08-04T06:06:54.726Z,94564.41
2022-08-04T06:09:21.674Z,94568.00
2022-08-04T06:12:00.465Z,94563.00
2022-08-04T06:14:39.825Z,94567.50
2022-08-04T06:18:33.173Z,94551.84
2022-08-04T06:20:20.275Z,94567.75
2022-08-04T06:22:47.397Z,94555.38
2022-08-04T06:25:22.005Z,94558.38
2022-08-04T06:27:51.292Z,94565.00
2022-08-04T06:30:20.008Z,94566.91
2022-08-04T06:33:03.519Z,94560.28
2022-08-04T06:35:33.126Z,94563.03
2022-08-04T06:38:01.984Z,94563.72
2022-08-04T06:40:32.433Z,94562.25
2022-08-04T06:43:07.165Z,94564.16
2022-08-04T06:45:37.651Z,94569.19
2022-08-04T06:48:07.015Z,94559.25
2022-08-04T06:51:26.238Z,94573.38
2022-08-04T06:53:26.575Z,94576.09
2022-08-04T06:55:54.685Z,94571.31
2022-08-04T06:58:22.845Z,94565.22
2022-08-04T07:00:50.432Z,94568.81
2022-08-04T07:03:19.476Z,94572.34
2022-08-04T07:05:50.198Z,94551.91
2022-08-04T07:08:17.311Z,94561.69
2022-08-04T07:10:45.723Z,94547.88
2022-08-04T07:13:13.141Z,94554.16
2022-08-04T07:15:45.272Z,94555.03
2022-08-04T07:18:12.187Z,94557.34
2022-08-04T07:20:46.884Z,94561.34
2022-08-04T07:23:17.878Z,94556.66
2022-08-04T07:26:00.956Z,94552.16
2022-08-04T07:28:40.813Z,94545.38
2022-08-04T07:31:33.921Z,94549.28
2022-08-04T07:34:20.737Z,94554.03
2022-08-04T07:36:51.302Z,94548.94
2022-08-04T07:39:27.637Z,94544.94
2022-08-04T07:42:02.242Z,94544.16
2022-08-04T07:44:32.096Z,94543.41
2022-08-04T07:47:00.766Z,94543.88
2022-08-04T07:49:54.703Z,94548.72
2022-08-04T07:52:14.950Z,94545.47
2022-08-04T07:54:42.557Z,94547.56
2022-08-04T07:57:09.444Z,94560.09
2022-08-04T07:59:56.580Z,94545.22
2022-08-04T08:02:24.062Z,94547.75
2022-08-04T08:04:52.630Z,94534.09
2022-08-04T08:07:21.003Z,94540.16
2022-08-04T08:09:48.223Z,94534.28
2022-08-04T08:12:35.823Z,94527.31
2022-08-04T08:15:03.344Z,94545.69
2022-08-04T08:17:30.108Z,94532.78
2022-08-04T08:19:56.903Z,94529.00
2022-08-04T08:22:23.917Z,94523.88
2022-08-04T08:24:50.834Z,94530.00
2022-08-04T08:27:17.874Z,94532.09
2022-08-04T08:29:45.437Z,94516.41
2022-08-04T08:32:14.137Z,94521.75
2022-08-04T08:34:45.441Z,94525.72
2022-08-04T08:37:35.207Z,94529.34
2022-08-04T08:40:40.858Z,94532.03
2022-08-04T08:44:03.706Z,94520.25
2022-08-04T08:46:52.322Z,94533.47
2022-08-04T08:50:02.821Z,94532.47
2022-08-04T08:53:02.051Z,94532.13
2022-08-04T08:55:46.610Z,94534.06
2022-08-04T08:58:59.717Z,94527.78
2022-08-04T09:02:10.670Z,94531.81
2022-08-04T09:05:01.177Z,94539.88
2022-08-04T09:07:54.895Z,94537.03
2022-08-04T09:10:46.972Z,94523.06
2022-08-04T09:13:27.778Z,94535.97
2022-08-04T09:16:22.541Z,94526.03
2022-08-04T09:19:00.451Z,94530.66
2022-08-04T09:21:36.934Z,94532.47
2022-08-04T09:24:35.066Z,94532.16
2022-08-04T09:27:10.744Z,94534.50
2022-08-04T09:30:06.853Z,94532.22
2022-08-04T09:32:41.413Z,94530.25
2022-08-04T09:35:26.423Z,94533.50
2022-08-04T09:38:30.999Z,94532.50
2022-08-04T09:42:01.306Z,94542.84
2022-08-04T09:44:52.101Z,94534.09
2022-08-04T09:47:39.901Z,94533.28
2022-08-04T09:50:39.140Z,94535.88
2022-08-04T09:53:11.666Z,94536.22
2022-08-04T09:55:55.341Z,94523.44
2022-08-04T09:59:01.340Z,94530.28
2022-08-04T10:01:32.206Z,94504.41
2022-08-04T10:04:05.129Z,94517.97
2022-08-04T10:07:31.503Z,94521.50
2022-08-04T10:10:20.214Z,94518.19
2022-08-04T10:12:56.124Z,94513.63
2022-08-04T10:15:42.821Z,94507.22
2022-08-04T10:18:40.630Z,94511.25
2022-08-04T10:21:27.518Z,94508.59
2022-08-04T10:24:19.159Z,94506.31
2022-08-04T10:27:41.634Z,94509.84
2022-08-04T10:30:13.622Z,94496.13
2022-08-04T10:33:03.174Z,94483.69
2022-08-04T10:35:39.092Z,94490.31
2022-08-04T10:38:29.492Z,94493.31
2022-08-04T10:41:09.358Z,94495.81
2022-08-04T10:43:36.082Z,94494.69
2022-08-04T10:46:13.199Z,94493.69
2022-08-04T10:48:51.646Z,94494.63
2022-08-04T10:51:57.290Z,94486.41
2022-08-04T10:54:48.380Z,94493.59
2022-08-04T10:57:25.956Z,94497.03
2022-08-04T11:00:03.498Z,94493.75
2022-08-04T11:02:43.977Z,94493.84
2022-08-04T11:05:43.660Z,94488.59
2022-08-04T11:08:20.729Z,94482.63
2022-08-04T11:11:05.136Z,94495.22
2022-08-04T11:13:57.090Z,94482.13
2022-08-04T11:16:30.402Z,94492.09
2022-08-04T11:19:44.825Z,94488.75
2022-08-04T11:22:23.063Z,94487.09
2022-08-04T11:25:15.072Z,94486.16
2022-08-04T11:28:13.828Z,94480.41
2022-08-04T11:30:51.841Z,94481.22
2022-08-04T11:33:34.689Z,94479.44
2022-08-04T11:36:28.050Z,94477.16
2022-08-04T11:39:18.677Z,94474.25
2022-08-04T11:42:14.440Z,94459.59
2022-08-04T11:45:04.719Z,94472.78
2022-08-04T11:47:44.164Z,94478.72
2022-08-04T11:50:33.138Z,94479.97
2022-08-04T11:53:00.888Z,94469.25
2022-08-04T11:55:29.237Z,94474.78
2022-08-04T11:57:57.057Z,94469.56
2022-08-04T12:00:28.556Z,94465.22
2022-08-04T12:03:44.753Z,94466.50
2022-08-04T12:06:56.857Z,94464.03
2022-08-04T12:09:49.129Z,94470.66
2022-08-04T12:12:43.459Z,94472.91
2022-08-04T12:15:20.934Z,94466.72
2022-08-04T12:18:08.387Z,94462.22
2022-08-04T12:20:44.072Z,94463.88
2022-08-04T12:23:22.928Z,94459.41
2022-08-04T12:25:56.573Z,94461.84
2022-08-04T12:29:08.053Z,94472.28
2022-08-04T12:31:54.822Z,94460.00
2022-08-04T12:34:35.649Z,94463.72
2022-08-04T12:37:27.629Z,94454.84
2022-08-04T12:40:28.634Z,94455.69
2022-08-04T12:43:39.288Z,94459.16
2022-08-04T12:46:09.695Z,94452.66
2022-08-04T12:48:38.857Z,94434.25
2022-08-04T12:52:06.177Z,94442.03
2022-08-04T12:53:56.707Z,94443.38
2022-08-04T12:56:27.883Z,94437.47
2022-08-04T12:59:07.150Z,94428.09
2022-08-04T13:02:07.163Z,94438.16
2022-08-04T13:04:29.694Z,94434.63
2022-08-04T13:07:26.820Z,94437.19
2022-08-04T13:09:53.772Z,94425.88
2022-08-04T13:12:32.081Z,94432.41
2022-08-04T13:15:17.611Z,94439.72
2022-08-04T13:17:53.521Z,94428.78
2022-08-04T13:20:44.124Z,94423.47
2022-08-04T13:23:21.984Z,94419.03
2022-08-04T13:26:43.479Z,94422.94
2022-08-04T13:28:42.934Z,94422.81
2022-08-04T13:31:16.961Z,94415.06
2022-08-04T13:33:48.021Z,94412.31
2022-08-04T13:36:17.898Z,94410.91
2022-08-04T13:38:58.865Z,94409.56
2022-08-04T13:41:31.127Z,94403.31
2022-08-04T13:44:19.244Z,94402.19
2022-08-04T13:46:58.933Z,94402.59
2022-08-04T13:49:37.716Z,94388.22
2022-08-04T13:52:12.693Z,94398.31
2022-08-04T13:54:47.306Z,94392.50
2022-08-04T13:57:30.560Z,94385.50
2022-08-04T14:00:08.197Z,94390.41
2022-08-04T14:02:44.725Z,94392.81
2022-08-04T14:05:36.935Z,94395.97
2022-08-04T14:08:29.116Z,94396.94
2022-08-04T14:10:58.936Z,94388.56
2022-08-04T14:13:41.218Z,94382.78
2022-08-04T14:16:20.173Z,94387.13
2022-08-04T14:18:48.106Z,94383.41
2022-08-04T14:21:17.648Z,94386.91
2022-08-04T14:23:51.499Z,94378.44
2022-08-04T14:26:32.510Z,94375.22
2022-08-04T14:29:26.570Z,94380.09
2022-08-04T14:32:10.571Z,94368.81
2022-08-04T14:34:41.253Z,94359.31
2022-08-04T14:37:16.349Z,94371.78
2022-08-04T14:40:19.365Z,94366.84
2022-08-04T14:42:54.297Z,94362.34
2022-08-04T14:45:35.864Z,94350.19
2022-08-04T14:48:14.593Z,94360.34
2022-08-04T14:50:44.502Z,94358.38
2022-08-04T14:53:29.482Z,94354.16
2022-08-04T14:55:59.900Z,94352.59
2022-08-04T14:58:33.800Z,94352.34
2022-08-04T15:01:10.549Z,94352.22
2022-08-04T15:03:50.317Z,94357.31
2022-08-04T15:06:29.245Z,94346.06
2022-08-04T15:09:08.211Z,94354.53
2022-08-04T15:11:41.451Z,94352.50
2022-08-04T15:14:16.324Z,94347.19
2022-08-04T15:16:57.481Z,94351.19
2022-08-04T15:19:25.295Z,94343.81
2022-08-04T15:21:52.930Z,94343.84
2022-08-04T15:24:19.764Z,94331.13
2022-08-04T15:26:52.411Z,94339.31
2022-08-04T15:29:58.990Z,94347.44
2022-08-04T15:32:35.174Z,94333.06
2022-08-04T15:35:08.602Z,94345.25
2022-08-04T15:38:00.112Z,94340.16
2022-08-04T15:40:49.644Z,94343.50
2022-08-04T15:43:25.353Z,94344.25
2022-08-04T15:46:32.884Z,94345.41
2022-08-04T15:48:39.910Z,94343.16
2022-08-04T15:51:15.408Z,94334.69
2022-08-04T15:54:02.658Z,94342.78
2022-08-04T15:56:30.319Z,94327.75
2022-08-04T15:58:58.740Z,94328.00
2022-08-04T16:01:27.749Z,94328.38
2022-08-04T16:04:01.002Z,94324.22
2022-08-04T16:06:28.972Z,94319.06
2022-08-04T16:09:02.156Z,94316.03
2022-08-04T16:11:32.959Z,94310.72
2022-08-04T16:14:02.717Z,94320.34
2022-08-04T16:16:48.012Z,94316.72
2022-08-04T16:19:42.152Z,94313.00
2022-08-04T16:22:13.905Z,94313.00
2022-08-04T16:24:43.291Z,94294.16
2022-08-04T16:27:12.469Z,94305.72
2022-08-04T16:29:42.256Z,94295.13
2022-08-04T16:32:23.048Z,94301.16
2022-08-04T16:34:54.746Z,94297.25
2022-08-04T16:37:36.057Z,94290.88
2022-08-04T16:40:38.783Z,94297.63
2022-08-04T16:43:07.501Z,94294.69
2022-08-04T16:46:04.065Z,94292.69
2022-08-04T16:48:33.782Z,94284.47
2022-08-04T16:51:06.852Z,94292.59
2022-08-04T16:53:53.392Z,94289.00
2022-08-04T16:56:33.417Z,94283.84
2022-08-04T16:59:10.379Z,94297.97
2022-08-04T17:01:39.493Z,94292.03
2022-08-04T17:04:07.231Z,94291.03
2022-08-04T17:06:40.602Z,94286.09
2022-08-04T17:09:13.640Z,94291.09
2022-08-04T17:11:42.793Z,94279.94
2022-08-04T17:14:09.982Z,94286.84
2022-08-04T17:16:41.010Z,94285.66
2022-08-04T17:19:23.622Z,94282.97
2022-08-04T17:22:04.657Z,94284.44
2022-08-04T17:24:35.010Z,94277.84
2022-08-04T17:27:04.310Z,94281.50
2022-08-04T17:29:49.197Z,94270.88
2022-08-04T17:32:22.221Z,94270.94
2022-08-04T17:34:53.606Z,94279.53
2022-08-04T17:37:40.087Z,94278.16
2022-08-04T17:40:22.521Z,94270.09
2022-08-04T17:44:03.431Z,94275.94
2022-08-04T17:49:25.399Z,94280.59
2022-08-04T17:52:06.418Z,94283.22
2022-08-04T17:54:40.626Z,94282.31
2022-08-04T17:57:21.327Z,94278.47
2022-08-04T17:59:59.352Z,94278.97
2022-08-04T18:02:34.719Z,94258.34
2022-08-04T18:05:10.028Z,94256.72
2022-08-04T18:08:40.590Z,94254.09
2022-08-04T18:10:51.709Z,94236.09
2022-08-04T18:13:28.208Z,94266.84
2022-08-04T18:16:12.684Z,94269.81
2022-08-04T18:19:18.940Z,94251.09
2022-08-04T18:21:59.829Z,94248.75
2022-08-04T18:24:55.757Z,94293.25
2022-08-04T18:27:25.213Z,94271.56
2022-08-04T18:30:14.557Z,94264.81
2022-08-04T18:33:10.117Z,94267.28
2022-08-04T18:36:35.436Z,94274.75
2022-08-04T18:38:22.329Z,94254.78
2022-08-04T18:40:52.912Z,94276.00
2022-08-04T18:43:27.931Z,94279.22
2022-08-04T18:45:57.327Z,94262.91
2022-08-04T18:48:36.287Z,94281.31
2022-08-04T18:51:22.519Z,94283.94
2022-08-04T18:53:55.412Z,94273.41
2022-08-04T18:56:31.843Z,94286.47
2022-08-04T18:59:10.193Z,94279.69
2022-08-04T19:02:09.226Z,94314.88
2022-08-04T19:04:32.924Z,94307.47
2022-08-04T19:07:28.978Z,94281.25
2022-08-04T19:09:52.302Z,94282.34
2022-08-04T19:12:26.714Z,94318.97
2022-08-04T19:14:55.395Z,94319.59
2022-08-04T19:17:56.679Z,94320.75
2022-08-04T19:20:25.143Z,94313.50
2022-08-04T19:24:11.230Z,94288.41
2022-08-04T19:26:03.814Z,94326.19
2022-08-04T19:28:36.874Z,94322.75
2022-08-04T19:31:11.427Z,94331.63
2022-08-04T19:33:58.128Z,94320.38
2022-08-04T19:36:32.733Z,94342.75
2022-08-04T19:39:09.265Z,94336.34
2022-08-04T19:42:06.106Z,94324.41
2022-08-04T19:44:29.902Z,94332.50
2022-08-04T19:47:00.648Z,94357.31
2022-08-04T19:50:03.656Z,94356.50
2022-08-04T19:52:33.218Z,94333.22
2022-08-04T19:55:09.858Z,94334.16
2022-08-04T19:57:49.556Z,94324.81
2022-08-04T20:00:32.841Z,94348.84
2022-08-04T20:03:13.519Z,94337.56
2022-08-04T20:05:53.492Z,94346.19
2022-08-04T20:08:21.839Z,94368.03
2022-08-04T20:10:52.004Z,94401.44
2022-08-04T20:13:20.841Z,94357.72
2022-08-04T20:15:55.311Z,94358.00
2022-08-04T20:18:35.473Z,94338.06
2022-08-04T20:21:19.718Z,94378.66
2022-08-04T20:23:52.751Z,94381.09
2022-08-04T20:26:20.595Z,94363.53
2022-08-04T20:28:51.822Z,94380.25
2022-08-04T20:31:19.421Z,94368.06
2022-08-04T20:36:33.993Z,94383.63
2022-08-04T20:39:03.144Z,94371.41
2022-08-04T20:41:36.931Z,94379.84
2022-08-04T20:44:11.850Z,94384.94
2022-08-04T20:46:39.105Z,94388.72
2022-08-04T20:49:06.546Z,94364.94
2022-08-04T20:51:45.365Z,94376.00
2022-08-04T20:54:26.367Z,94383.38
2022-08-04T20:56:54.137Z,94340.34
2022-08-04T20:59:21.162Z,94389.03
2022-08-04T21:01:49.585Z,94382.63
2022-08-04T21:04:34.833Z,94355.09
2022-08-04T21:07:10.237Z,94385.50
2022-08-04T21:09:42.437Z,94372.47
2022-08-04T21:12:27.951Z,94348.31
2022-08-04T21:15:13.547Z,94381.47
2022-08-04T21:17:58.206Z,94346.66
2022-08-04T21:20:39.517Z,94388.44
2022-08-04T21:23:09.759Z,94384.19
2022-08-04T21:26:01.086Z,94351.75
2022-08-04T21:28:29.501Z,94355.03
2022-08-04T21:30:59.766Z,94342.03
2022-08-04T21:33:50.603Z,94376.50
2022-08-04T21:36:19.707Z,94378.41
2022-08-04T21:38:51.369Z,94375.81
2022-08-04T21:41:25.015Z,94406.06
2022-08-04T21:43:55.055Z,94377.84
2022-08-04T21:46:22.542Z,94380.75
2022-08-04T21:48:49.562Z,94347.63
2022-08-04T21:51:59.261Z,94383.53
2022-08-04T21:54:15.188Z,94381.94
2022-08-04T21:56:50.765Z,94377.66
2022-08-04T21:59:18.932Z,94347.72
2022-08-04T22:02:00.336Z,94351.38
2022-08-04T22:04:28.585Z,94398.75
2022-08-04T22:06:57.612Z,94384.78
2022-08-04T22:09:24.587Z,94360.03
2022-08-04T22:11:55.954Z,94379.94
2022-08-04T22:14:29.201Z,94388.78
2022-08-04T22:17:01.791Z,94380.28
2022-08-04T22:19:50.298Z,94333.81
2022-08-04T22:22:25.314Z,94369.75
2022-08-04T22:24:58.430Z,94368.84
2022-08-04T22:27:55.508Z,94370.06
2022-08-04T22:34:18.584Z,94379.97
2022-08-04T22:36:46.241Z,94357.97
2022-08-04T22:39:13.324Z,94362.16
2022-08-04T22:41:48.579Z,94367.31
2022-08-04T22:44:16.448Z,94356.84
2022-08-04T22:46:43.477Z,94373.06
2022-08-04T22:49:12.646Z,94350.31
2022-08-04T22:51:39.795Z,94358.59
2022-08-04T22:54:15.375Z,94353.84
2022-08-04T22:56:42.469Z,94348.97
2022-08-04T22:59:13.024Z,94320.78
2022-08-04T23:02:00.456Z,94354.88
2022-08-04T23:04:34.704Z,94352.75
2022-08-04T23:07:05.187Z,94320.44
2022-08-04T23:09:50.711Z,94331.22
2022-08-04T23:12:27.217Z,94376.50
2022-08-04T23:14:59.576Z,94317.88
2022-08-04T23:17:28.608Z,94357.06
2022-08-04T23:19:59.246Z,94321.25
2022-08-04T23:22:41.070Z,94338.41
2022-08-04T23:25:15.102Z,94341.31
2022-08-04T23:27:50.938Z,94337.72
2022-08-04T23:30:29.966Z,94330.41
2022-08-04T23:32:58.390Z,94352.34
2022-08-04T23:35:25.324Z,94344.78
2022-08-04T23:37:56.176Z,94388.63
2022-08-04T23:40:34.385Z,94343.88
2022-08-04T23:43:10.539Z,94322.88
2022-08-04T23:46:04.342Z,94339.81
2022-08-04T23:48:36.801Z,94346.53
2022-08-04T23:51:14.981Z,94335.53
2022-08-04T23:54:02.526Z,94317.31
2022-08-04T23:56:35.695Z,94309.06
2022-08-04T23:59:05.288Z,94348.31
